Time;durP1;ratioP1;P1;durP2;ratioP2;P2;SDS_P1;SDS_P2;PMS_P1;PMS_P2;Temp;Humidity;BMP_temperature;BMP_pressure;BME280_temperature;BME280_humidity;BME280_pressure;Samples;Min_cycle;Max_cycle;Signal;HPM_P1;HPM_P2
2021/11/25 00:00:43;;;;;;;9.90;6.90;;;;;;;;;;4934888;29;20648;-78
2021/11/25 00:03:11;;;;;;;10.50;7.60;;;;;;;;;;4942787;28;20209;-84
2021/11/25 00:05:38;;;;;;;9.05;7.50;;;;;;;;;;4938705;29;20215;-81
2021/11/25 00:08:06;;;;;;;8.75;7.55;;;;;;;;;;4932809;29;20609;-82
2021/11/25 00:10:34;;;;;;;8.38;6.45;;;;;;;;;;4933450;29;20198;-75
2021/11/25 00:13:01;;;;;;;9.70;8.05;;;;;;;;;;4937504;29;20592;-80
2021/11/25 00:15:29;;;;;;;9.18;7.65;;;;;;;;;;4937598;29;20202;-82
2021/11/25 00:17:57;;;;;;;10.65;7.15;;;;;;;;;;4943390;28;20699;-83
2021/11/25 00:20:24;;;;;;;8.32;6.47;;;;;;;;;;4944602;29;20197;-78
2021/11/25 00:22:51;;;;;;;7.65;6.15;;;;;;;;;;4937672;29;20212;-78
2021/11/25 00:25:19;;;;;;;8.90;6.97;;;;;;;;;;4934403;29;20222;-82
2021/11/25 00:27:46;;;;;;;9.82;7.10;;;;;;;;;;4937467;29;20226;-81
2021/11/25 00:30:13;;;;;;;9.20;6.78;;;;;;;;;;4936175;29;20210;-84
2021/11/25 00:32:42;;;;;;;9.18;7.00;;;;;;;;;;4938909;29;20226;-82
2021/11/25 00:35:10;;;;;;;8.60;6.97;;;;;;;;;;4943553;28;20199;-81
2021/11/25 00:37:38;;;;;;;10.35;9.00;;;;;;;;;;4949379;29;20580;-79
2021/11/25 00:40:06;;;;;;;11.77;8.82;;;;;;;;;;4939744;28;20203;-78
2021/11/25 00:42:33;;;;;;;8.35;7.35;;;;;;;;;;4936304;29;20206;-83
2021/11/25 00:45:00;;;;;;;8.32;6.80;;;;;;;;;;4936137;29;20206;-78
2021/11/25 00:47:28;;;;;;;7.55;6.75;;;;;;;;;;4922641;29;20700;-82
2021/11/25 00:49:56;;;;;;;10.30;8.00;;;;;;;;;;4937172;29;20199;-79
2021/11/25 00:52:24;;;;;;;8.05;7.25;;;;;;;;;;4937348;29;20194;-84
2021/11/25 00:54:52;;;;;;;8.93;7.68;;;;;;;;;;4938534;29;20228;-80
2021/11/25 00:57:19;;;;;;;11.35;6.30;;;;;;;;;;4943144;28;20237;-80
2021/11/25 00:59:46;;;;;;;9.32;6.30;;;;;;;;;;4947994;28;20202;-81
2021/11/25 01:02:13;;;;;;;7.05;6.32;;;;;;;;;;4956326;28;20208;-78
2021/11/25 01:04:40;;;;;;;10.05;6.80;;;;;;;;;;4948882;29;20210;-77
2021/11/25 01:07:10;;;;;;;8.95;7.75;;;;;;;;;;4936487;29;20230;-81
2021/11/25 01:09:37;;;;;;;10.70;7.40;;;;;;;;;;4935768;29;20206;-79
2021/11/25 01:12:05;;;;;;;8.48;7.05;;;;;;;;;;4936428;29;20210;-80
2021/11/25 01:14:33;;;;;;;8.25;7.45;;;;;;;;;;4934217;29;20301;-81
2021/11/25 01:17:00;;;;;;;7.32;6.00;;;;;;;;;;4937959;29;20206;-78
2021/11/25 01:19:28;;;;;;;6.32;5.72;;;;;;;;;;4939731;29;20202;-78
2021/11/25 01:21:55;;;;;;;9.82;6.82;;;;;;;;;;4936923;29;20679;-79
2021/11/25 01:24:24;;;;;;;8.27;6.88;;;;;;;;;;4934876;29;20671;-76
2021/11/25 01:26:51;;;;;;;8.60;6.85;;;;;;;;;;4934630;29;20227;-81
2021/11/25 01:29:19;;;;;;;7.32;6.43;;;;;;;;;;4934513;29;20611;-83
2021/11/25 01:31:46;;;;;;;8.65;6.18;;;;;;;;;;4934179;29;20202;-81
2021/11/25 01:34:13;;;;;;;11.25;7.15;;;;;;;;;;4941120;29;20206;-82
2021/11/25 01:36:40;;;;;;;10.23;7.05;;;;;;;;;;4940271;28;20226;-82
2021/11/25 01:39:08;;;;;;;8.30;6.90;;;;;;;;;;4934840;29;20899;-83
2021/11/25 01:41:38;;;;;;;10.02;6.38;;;;;;;;;;4931100;29;20205;-77
2021/11/25 01:44:05;;;;;;;8.10;6.05;;;;;;;;;;4933213;29;20313;-83
2021/11/25 01:46:33;;;;;;;10.77;6.97;;;;;;;;;;4933344;29;20972;-84
2021/11/25 01:49:00;;;;;;;7.85;6.72;;;;;;;;;;4934554;29;20210;-86
2021/11/25 01:51:27;;;;;;;12.45;6.97;;;;;;;;;;4940959;29;20208;-81
2021/11/25 01:53:55;;;;;;;9.27;8.13;;;;;;;;;;4945753;28;20297;-77
2021/11/25 01:56:22;;;;;;;9.45;7.22;;;;;;;;;;4952890;28;20555;-80
2021/11/25 01:58:51;;;;;;;8.68;6.70;;;;;;;;;;4953701;28;20257;-88
2021/11/25 02:01:20;;;;;;;10.50;7.90;;;;;;;;;;4966159;28;20297;-81
2021/11/25 02:03:48;;;;;;;8.23;6.93;;;;;;;;;;4934857;29;20509;-80
2021/11/25 02:06:16;;;;;;;10.15;7.10;;;;;;;;;;4937903;29;20307;-85
2021/11/25 02:08:44;;;;;;;7.75;6.88;;;;;;;;;;4942430;29;20561;-80
2021/11/25 02:11:11;;;;;;;7.72;6.85;;;;;;;;;;4940523;28;20573;-79
2021/11/25 02:13:39;;;;;;;9.95;7.20;;;;;;;;;;4934006;29;20210;-83
2021/11/25 02:16:07;;;;;;;9.38;6.90;;;;;;;;;;4932743;29;20209;-78
2021/11/25 02:18:34;;;;;;;9.85;7.47;;;;;;;;;;4933937;29;20223;-80
2021/11/25 02:21:05;;;;;;;11.20;7.53;;;;;;;;;;4932970;29;20564;-79
2021/11/25 02:23:32;;;;;;;9.48;7.45;;;;;;;;;;4940656;29;20206;-79
2021/11/25 02:26:00;;;;;;;8.85;7.95;;;;;;;;;;4942205;29;20229;-80
2021/11/25 02:28:29;;;;;;;8.25;7.22;;;;;;;;;;4962544;28;20230;-80
2021/11/25 02:30:56;;;;;;;8.38;6.78;;;;;;;;;;4933137;29;20210;-81
2021/11/25 02:33:23;;;;;;;8.45;7.32;;;;;;;;;;4932671;29;20222;-82
2021/11/25 02:35:51;;;;;;;9.93;6.68;;;;;;;;;;4933795;29;20205;-82
2021/11/25 02:38:19;;;;;;;7.03;6.13;;;;;;;;;;4929134;29;20612;-81
2021/11/25 02:40:48;;;;;;;8.80;6.85;;;;;;;;;;4939296;29;20635;-80
2021/11/25 02:43:16;;;;;;;8.05;7.00;;;;;;;;;;4934225;29;20218;-81
2021/11/25 02:45:46;;;;;;;9.45;7.43;;;;;;;;;;4932399;29;20217;-78
2021/11/25 02:48:13;;;;;;;9.32;7.13;;;;;;;;;;4931431;29;20712;-83
2021/11/25 02:50:41;;;;;;;9.63;7.45;;;;;;;;;;4933132;29;20199;-78
2021/11/25 02:53:09;;;;;;;10.77;7.45;;;;;;;;;;4932957;29;20207;-82
2021/11/25 02:55:37;;;;;;;8.88;7.05;;;;;;;;;;4935407;29;20221;-82
2021/11/25 02:58:05;;;;;;;8.95;7.32;;;;;;;;;;4934730;29;20658;-83
2021/11/25 03:00:33;;;;;;;9.10;7.70;;;;;;;;;;4936565;29;20732;-81
2021/11/25 03:03:02;;;;;;;10.27;7.88;;;;;;;;;;4940729;29;20198;-79
2021/11/25 03:05:30;;;;;;;10.40;7.65;;;;;;;;;;4949769;29;20715;-84
2021/11/25 03:07:57;;;;;;;7.88;6.80;;;;;;;;;;4952474;28;20232;-83
2021/11/25 03:10:25;;;;;;;10.27;7.32;;;;;;;;;;4935701;28;20209;-79
2021/11/25 03:12:54;;;;;;;9.45;7.28;;;;;;;;;;4934093;29;20289;-80
2021/11/25 03:15:21;;;;;;;14.00;8.93;;;;;;;;;;4934021;29;20218;-81
2021/11/25 03:17:48;;;;;;;10.27;7.13;;;;;;;;;;4934611;29;20688;-81
2021/11/25 03:20:15;;;;;;;7.78;6.97;;;;;;;;;;4934976;29;20225;-82
2021/11/25 03:22:43;;;;;;;10.50;8.00;;;;;;;;;;4938040;29;20194;-76
2021/11/25 03:25:10;;;;;;;8.38;7.00;;;;;;;;;;4940463;28;20203;-78
2021/11/25 03:27:37;;;;;;;9.95;7.60;;;;;;;;;;4943701;28;20231;-82
2021/11/25 03:30:07;;;;;;;10.25;7.50;;;;;;;;;;4936344;29;20198;-79
2021/11/25 03:32:34;;;;;;;12.65;8.45;;;;;;;;;;4932488;29;20195;-80
2021/11/25 03:35:01;;;;;;;13.25;9.07;;;;;;;;;;4933507;29;20203;-79
2021/11/25 03:37:28;;;;;;;9.77;8.73;;;;;;;;;;4932241;29;20230;-86
2021/11/25 03:39:56;;;;;;;7.90;7.10;;;;;;;;;;4935015;29;20203;-85
2021/11/25 03:42:23;;;;;;;9.23;8.27;;;;;;;;;;4934205;29;20210;-85
2021/11/25 03:44:51;;;;;;;11.57;8.38;;;;;;;;;;4937283;29;20198;-83
2021/11/25 03:47:20;;;;;;;11.52;8.65;;;;;;;;;;4939505;28;20229;-80
2021/11/25 03:49:47;;;;;;;11.18;9.30;;;;;;;;;;4955655;28;20618;-82
2021/11/25 03:52:15;;;;;;;12.27;8.85;;;;;;;;;;4948234;28;20199;-86
2021/11/25 03:54:42;;;;;;;10.48;8.27;;;;;;;;;;4935446;29;20562;-80
2021/11/25 03:57:09;;;;;;;12.02;8.48;;;;;;;;;;4932898;29;20241;-78
2021/11/25 03:59:36;;;;;;;10.23;8.23;;;;;;;;;;4937611;29;20210;-78
2021/11/25 04:02:04;;;;;;;9.68;8.00;;;;;;;;;;4944094;29;20205;-80
2021/11/25 04:04:33;;;;;;;13.30;8.43;;;;;;;;;;4947058;28;20586;-79
2021/11/25 04:07:00;;;;;;;11.77;8.38;;;;;;;;;;4954846;28;20462;-82
2021/11/25 04:09:27;;;;;;;12.18;8.02;;;;;;;;;;4956603;28;20623;-82
2021/11/25 04:11:55;;;;;;;11.50;8.90;;;;;;;;;;4951680;28;20195;-84
2021/11/25 04:14:22;;;;;;;9.45;7.18;;;;;;;;;;4932382;29;20546;-83
2021/11/25 04:16:49;;;;;;;9.00;7.38;;;;;;;;;;4933845;29;20214;-78
2021/11/25 04:19:16;;;;;;;10.75;8.05;;;;;;;;;;4943186;28;20573;-79
2021/11/25 04:21:45;;;;;;;10.13;8.00;;;;;;;;;;4937076;29;20211;-84
2021/11/25 04:24:12;;;;;;;11.60;8.43;;;;;;;;;;4935119;29;20206;-84
2021/11/25 04:26:40;;;;;;;15.35;8.55;;;;;;;;;;4935444;29;20234;-82
2021/11/25 04:29:07;;;;;;;12.48;8.18;;;;;;;;;;4934972;29;20411;-79
2021/11/25 04:36:58;;;;;;;9.55;8.02;;;;;;;;;;4938003;28;20226;-80
2021/11/25 04:39:26;;;;;;;12.45;9.38;;;;;;;;;;4935396;29;20214;-80
2021/11/25 04:41:53;;;;;;;12.48;8.38;;;;;;;;;;4935938;29;20203;-83
2021/11/25 04:44:21;;;;;;;12.85;8.20;;;;;;;;;;4935188;29;20199;-77
2021/11/25 04:46:48;;;;;;;8.45;7.28;;;;;;;;;;4933468;29;20225;-84
2021/11/25 04:49:16;;;;;;;11.52;8.32;;;;;;;;;;4939157;28;20217;-83
2021/11/25 04:51:43;;;;;;;10.15;7.63;;;;;;;;;;4944190;29;20203;-78
2021/11/25 04:54:12;;;;;;;8.88;7.68;;;;;;;;;;4943764;29;20206;-82
2021/11/25 04:56:39;;;;;;;9.77;7.30;;;;;;;;;;4936022;29;20309;-78
2021/11/25 04:59:06;;;;;;;9.48;7.60;;;;;;;;;;4933878;29;20285;-82
2021/11/25 05:01:34;;;;;;;10.85;7.35;;;;;;;;;;4934971;29;20215;-77
2021/11/25 05:04:01;;;;;;;8.52;7.13;;;;;;;;;;4937214;29;20206;-80
2021/11/25 05:06:29;;;;;;;9.63;7.60;;;;;;;;;;4938050;29;20206;-81
2021/11/25 05:08:56;;;;;;;7.90;7.10;;;;;;;;;;4934492;29;20199;-82
2021/11/25 05:11:24;;;;;;;11.20;7.95;;;;;;;;;;4936845;29;20446;-79
2021/11/25 05:13:52;;;;;;;7.63;6.93;;;;;;;;;;4940643;29;20199;-83
2021/11/25 05:16:19;;;;;;;9.98;7.20;;;;;;;;;;4954395;28;20210;-79
2021/11/25 05:18:47;;;;;;;8.90;7.28;;;;;;;;;;4953789;28;20513;-78
2021/11/25 05:21:14;;;;;;;7.60;6.80;;;;;;;;;;4954069;28;20237;-84
2021/11/25 05:23:42;;;;;;;9.20;7.32;;;;;;;;;;4968941;28;20210;-80
2021/11/25 05:26:09;;;;;;;9.25;6.85;;;;;;;;;;4938729;29;20258;-81
2021/11/25 05:28:38;;;;;;;10.50;8.30;;;;;;;;;;4936208;29;20400;-82
2021/11/25 05:31:05;;;;;;;9.43;7.65;;;;;;;;;;4937560;29;20213;-79
2021/11/25 05:33:32;;;;;;;10.20;7.60;;;;;;;;;;4939690;29;20615;-76
2021/11/25 05:36:00;;;;;;;8.65;7.72;;;;;;;;;;4941572;29;20198;-85
2021/11/25 05:38:27;;;;;;;16.58;8.05;;;;;;;;;;4938318;28;20223;-76
2021/11/25 05:40:54;;;;;;;10.02;7.90;;;;;;;;;;4934821;29;20581;-85
2021/11/25 05:43:21;;;;;;;9.27;7.57;;;;;;;;;;4933871;29;20565;-81
2021/11/25 05:45:51;;;;;;;10.90;7.55;;;;;;;;;;4934139;29;20209;-80
2021/11/25 05:48:19;;;;;;;9.18;7.68;;;;;;;;;;4932639;29;20233;-81
2021/11/25 05:50:46;;;;;;;9.45;7.63;;;;;;;;;;4939523;28;20209;-81
2021/11/25 05:53:18;;;;;;;10.50;8.23;;;;;;;;;;4939712;28;20195;-81
2021/11/25 05:55:46;;;;;;;9.27;7.53;;;;;;;;;;4933716;29;20203;-78
2021/11/25 05:58:13;;;;;;;11.45;8.10;;;;;;;;;;4932954;29;20599;-86
2021/11/25 06:00:40;;;;;;;10.13;8.02;;;;;;;;;;4930443;29;20889;-82
2021/11/25 06:03:09;;;;;;;11.30;7.75;;;;;;;;;;4930384;29;20211;-86
2021/11/25 06:05:36;;;;;;;9.48;8.43;;;;;;;;;;4941485;29;20198;-80
2021/11/25 06:08:04;;;;;;;9.93;7.85;;;;;;;;;;4941455;28;20226;-79
2021/11/25 06:10:31;;;;;;;9.80;7.13;;;;;;;;;;4931639;29;20199;-79
2021/11/25 06:12:59;;;;;;;10.93;8.20;;;;;;;;;;4935491;29;20586;-81
2021/11/25 06:15:26;;;;;;;10.43;9.27;;;;;;;;;;4931725;29;20195;-81
2021/11/25 06:17:53;;;;;;;13.32;9.60;;;;;;;;;;4936204;29;20230;-79
2021/11/25 06:20:22;;;;;;;13.05;10.05;;;;;;;;;;4938677;29;20195;-85
2021/11/25 06:22:50;;;;;;;11.00;8.73;;;;;;;;;;4940095;29;20216;-86
2021/11/25 06:25:18;;;;;;;11.48;8.68;;;;;;;;;;4934467;29;20203;-88
2021/11/25 06:27:46;;;;;;;12.70;9.45;;;;;;;;;;4941475;28;20234;-86
2021/11/25 06:30:14;;;;;;;12.60;10.10;;;;;;;;;;4915720;29;20207;-79
2021/11/25 06:32:43;;;;;;;15.20;9.85;;;;;;;;;;4916287;29;20249;-81
2021/11/25 06:35:12;;;;;;;13.80;10.27;;;;;;;;;;4933865;29;20661;-83
2021/11/25 06:37:41;;;;;;;12.65;9.57;;;;;;;;;;4934558;29;20221;-81
2021/11/25 06:40:08;;;;;;;13.95;11.13;;;;;;;;;;4935284;29;20206;-81
2021/11/25 06:42:36;;;;;;;15.05;11.50;;;;;;;;;;4938990;29;20195;-80
2021/11/25 06:45:03;;;;;;;15.25;11.68;;;;;;;;;;4939691;28;20210;-84
2021/11/25 06:47:31;;;;;;;14.63;10.48;;;;;;;;;;4938408;29;20230;-78
2021/11/25 06:49:58;;;;;;;14.32;11.35;;;;;;;;;;4936675;29;20298;-76
2021/11/25 06:52:25;;;;;;;15.10;11.60;;;;;;;;;;4934032;29;20225;-79
2021/11/25 06:54:54;;;;;;;14.45;11.32;;;;;;;;;;4940155;28;20643;-81
2021/11/25 06:57:21;;;;;;;14.32;11.02;;;;;;;;;;4940188;28;20669;-79
2021/11/25 06:59:48;;;;;;;16.55;11.75;;;;;;;;;;4935032;29;20206;-80
2021/11/25 07:02:16;;;;;;;15.80;11.50;;;;;;;;;;4935725;29;20209;-80
2021/11/25 07:04:43;;;;;;;16.73;11.50;;;;;;;;;;4937661;29;20204;-78
2021/11/25 07:07:11;;;;;;;14.93;11.32;;;;;;;;;;4944795;28;20238;-78
2021/11/25 07:09:38;;;;;;;16.58;11.25;;;;;;;;;;4932568;29;20217;-79
2021/11/25 07:12:07;;;;;;;19.05;11.77;;;;;;;;;;4933691;29;20586;-84
2021/11/25 07:14:34;;;;;;;19.15;13.00;;;;;;;;;;4930796;29;20203;-79
2021/11/25 07:17:01;;;;;;;16.60;12.38;;;;;;;;;;4933101;29;20222;-83
2021/11/25 07:19:29;;;;;;;17.08;12.25;;;;;;;;;;4935356;29;20213;-78
2021/11/25 07:21:56;;;;;;;18.98;13.15;;;;;;;;;;4942456;29;20561;-78
2021/11/25 07:24:23;;;;;;;16.05;12.40;;;;;;;;;;4934123;29;20202;-80
2021/11/25 07:26:50;;;;;;;17.30;12.45;;;;;;;;;;4931102;29;20318;-80
2021/11/25 07:29:19;;;;;;;19.10;13.18;;;;;;;;;;4933002;29;20313;-81
2021/11/25 07:31:47;;;;;;;18.40;13.63;;;;;;;;;;4932721;29;20229;-80
2021/11/25 07:34:14;;;;;;;18.70;15.68;;;;;;;;;;4932418;29;20207;-85
2021/11/25 07:36:41;;;;;;;20.30;15.00;;;;;;;;;;4937948;29;20222;-82
2021/11/25 07:39:08;;;;;;;17.05;12.68;;;;;;;;;;4942629;28;20561;-80
2021/11/25 07:41:38;;;;;;;20.83;14.43;;;;;;;;;;4923462;28;21564;-80
2021/11/25 07:44:06;;;;;;;19.27;13.82;;;;;;;;;;4911097;29;20688;-81
2021/11/25 07:46:34;;;;;;;18.13;13.55;;;;;;;;;;4927877;29;20219;-85
2021/11/25 07:49:02;;;;;;;21.05;14.05;;;;;;;;;;4927063;29;20244;-86
2021/11/25 07:51:30;;;;;;;21.77;14.95;;;;;;;;;;4932040;29;20585;-80
2021/11/25 07:53:57;;;;;;;24.65;14.32;;;;;;;;;;4937678;28;20198;-85
2021/11/25 07:56:25;;;;;;;19.17;13.90;;;;;;;;;;4930710;29;20214;-83
2021/11/25 07:58:52;;;;;;;24.77;15.35;;;;;;;;;;4925802;29;20241;-87
2021/11/25 08:01:20;;;;;;;19.88;14.15;;;;;;;;;;4928490;29;20636;-84
2021/11/25 08:04:00;;;;;;;20.27;13.68;;;;;;;;;;4927953;29;20213;-77
2021/11/25 08:06:28;;;;;;;30.55;16.08;;;;;;;;;;4946736;28;20208;-77
2021/11/25 08:08:55;;;;;;;20.58;13.95;;;;;;;;;;4940056;28;20317;-82
2021/11/25 08:11:23;;;;;;;21.98;16.00;;;;;;;;;;4938887;29;20217;-77
2021/11/25 08:13:50;;;;;;;21.55;14.70;;;;;;;;;;4929841;29;20202;-78
2021/11/25 08:16:17;;;;;;;17.67;13.27;;;;;;;;;;4932661;29;20290;-78
2021/11/25 08:18:45;;;;;;;18.92;14.25;;;;;;;;;;4932532;29;20214;-76
2021/11/25 08:21:14;;;;;;;22.65;13.90;;;;;;;;;;4931832;29;20199;-76
2021/11/25 08:23:43;;;;;;;19.20;13.77;;;;;;;;;;4934992;29;20213;-76
2021/11/25 08:26:10;;;;;;;21.77;15.10;;;;;;;;;;4938610;29;20218;-78
2021/11/25 08:28:39;;;;;;;22.60;15.35;;;;;;;;;;4943637;28;20234;-77
2021/11/25 08:31:07;;;;;;;20.10;14.10;;;;;;;;;;4942841;28;20294;-85
2021/11/25 08:33:34;;;;;;;21.30;15.77;;;;;;;;;;4935443;29;20598;-78
2021/11/25 08:36:01;;;;;;;27.10;16.52;;;;;;;;;;4934592;29;20218;-75
2021/11/25 08:38:30;;;;;;;23.83;16.30;;;;;;;;;;4933669;29;20222;-76
2021/11/25 08:40:59;;;;;;;20.80;15.55;;;;;;;;;;4935129;29;20324;-77
2021/11/25 08:43:26;;;;;;;22.85;16.35;;;;;;;;;;4938087;29;20505;-76
2021/11/25 08:45:53;;;;;;;30.95;17.05;;;;;;;;;;4936536;29;20653;-78
2021/11/25 08:48:21;;;;;;;24.13;15.85;;;;;;;;;;4941782;28;20236;-81
2021/11/25 08:50:48;;;;;;;26.45;15.80;;;;;;;;;;4938945;28;20211;-79
2021/11/25 08:53:16;;;;;;;27.27;16.13;;;;;;;;;;4936135;29;20217;-80
2021/11/25 08:55:43;;;;;;;25.90;16.42;;;;;;;;;;4936017;29;20561;-82
2021/11/25 08:58:12;;;;;;;23.85;16.17;;;;;;;;;;4934329;29;20325;-83
2021/11/25 09:00:39;;;;;;;24.83;15.63;;;;;;;;;;4949960;28;20207;-79
2021/11/25 09:03:06;;;;;;;26.70;17.30;;;;;;;;;;4938082;29;20202;-82
2021/11/25 09:05:34;;;;;;;27.02;16.00;;;;;;;;;;4936351;29;20213;-76
2021/11/25 09:08:02;;;;;;;26.25;16.48;;;;;;;;;;4938010;29;20317;-81
2021/11/25 09:10:29;;;;;;;27.80;17.23;;;;;;;;;;4942844;29;20235;-81
2021/11/25 09:12:56;;;;;;;28.35;17.50;;;;;;;;;;4936654;28;20216;-77
2021/11/25 09:15:25;;;;;;;30.60;17.73;;;;;;;;;;4934107;29;20556;-82
2021/11/25 09:17:52;;;;;;;24.30;17.38;;;;;;;;;;4933760;29;20580;-79
2021/11/25 09:20:19;;;;;;;25.50;17.35;;;;;;;;;;4934921;29;20448;-78
2021/11/25 09:22:47;;;;;;;24.80;17.00;;;;;;;;;;4934018;29;20209;-78
2021/11/25 09:25:14;;;;;;;28.70;18.67;;;;;;;;;;4939672;29;20201;-78
2021/11/25 09:27:43;;;;;;;31.27;18.02;;;;;;;;;;4941697;28;20221;-81
2021/11/25 09:30:10;;;;;;;25.75;17.10;;;;;;;;;;4931791;29;20218;-75
2021/11/25 09:32:39;;;;;;;27.33;18.10;;;;;;;;;;4934734;29;20228;-77
2021/11/25 09:35:07;;;;;;;30.27;19.40;;;;;;;;;;4933771;29;20217;-75
2021/11/25 09:37:34;;;;;;;32.50;19.88;;;;;;;;;;4934921;29;20643;-76
2021/11/25 09:40:02;;;;;;;30.75;21.05;;;;;;;;;;4937591;29;20214;-75
2021/11/25 09:42:29;;;;;;;33.42;19.58;;;;;;;;;;4954590;28;20208;-77
2021/11/25 09:44:56;;;;;;;30.75;19.52;;;;;;;;;;4948425;28;20217;-76
2021/11/25 09:47:24;;;;;;;26.55;17.33;;;;;;;;;;4953530;28;20320;-80
2021/11/25 09:49:53;;;;;;;24.77;18.38;;;;;;;;;;4953246;28;20226;-80
2021/11/25 09:52:20;;;;;;;28.85;18.20;;;;;;;;;;4932631;29;20541;-78
2021/11/25 09:54:47;;;;;;;28.55;19.38;;;;;;;;;;4934520;29;20195;-79
2021/11/25 09:57:15;;;;;;;23.40;17.30;;;;;;;;;;4938446;28;20230;-75
2021/11/25 09:59:42;;;;;;;23.65;17.33;;;;;;;;;;4938695;28;20207;-79
2021/11/25 10:02:10;;;;;;;25.23;17.33;;;;;;;;;;4932763;29;20226;-80
2021/11/25 10:04:37;;;;;;;28.33;17.92;;;;;;;;;;4933825;29;20206;-77
2021/11/25 10:07:06;;;;;;;38.25;19.90;;;;;;;;;;4931516;29;20219;-75
2021/11/25 10:09:34;;;;;;;32.65;19.98;;;;;;;;;;4931129;29;20234;-77
2021/11/25 10:12:02;;;;;;;28.45;17.27;;;;;;;;;;4940374;29;20690;-78
2021/11/25 10:14:38;;;;;;;32.22;18.48;;;;;;;;;;4938118;28;20202;-75
2021/11/25 10:17:06;;;;;;;33.95;18.88;;;;;;;;;;4933685;29;20218;-74
2021/11/25 10:19:33;;;;;;;26.33;17.85;;;;;;;;;;4932685;29;20548;-78
2021/11/25 10:22:02;;;;;;;27.13;17.20;;;;;;;;;;4934309;29;20238;-75
2021/11/25 10:24:35;;;;;;;23.67;15.77;;;;;;;;;;4932909;29;20199;-75
2021/11/25 10:27:13;;;;;;;29.00;18.70;;;;;;;;;;4938739;28;20231;-82
2021/11/25 10:29:40;;;;;;;29.58;19.23;;;;;;;;;;4938727;29;20233;-77
2021/11/25 10:32:08;;;;;;;32.75;20.33;;;;;;;;;;4948991;29;20209;-78
2021/11/25 10:34:40;;;;;;;30.65;19.92;;;;;;;;;;4932742;29;20199;-79
2021/11/25 10:37:18;;;;;;;24.23;18.48;;;;;;;;;;4935812;29;20218;-76
2021/11/25 10:40:09;;;;;;;26.50;18.55;;;;;;;;;;4938064;29;20207;-77
2021/11/25 10:42:37;;;;;;;30.90;19.27;;;;;;;;;;4947642;28;20557;-82
2021/11/25 10:45:11;;;;;;;23.20;18.20;;;;;;;;;;4936864;29;20207;-80
2021/11/25 10:47:38;;;;;;;24.27;17.95;;;;;;;;;;4935498;29;20231;-80
2021/11/25 10:50:08;;;;;;;25.50;17.77;;;;;;;;;;4941066;29;20229;-79
2021/11/25 10:52:37;;;;;;;27.00;19.10;;;;;;;;;;4954573;28;20214;-78
2021/11/25 10:55:07;;;;;;;28.85;21.73;;;;;;;;;;4933938;29;20847;-73
2021/11/25 10:57:39;;;;;;;31.70;19.10;;;;;;;;;;4929214;29;20234;-78
2021/11/25 11:00:08;;;;;;;28.13;18.92;;;;;;;;;;4933410;29;20206;-79
2021/11/25 11:02:35;;;;;;;25.33;17.98;;;;;;;;;;4933623;29;20203;-78
2021/11/25 11:05:04;;;;;;;27.90;19.80;;;;;;;;;;4934515;29;20652;-79
2021/11/25 11:07:32;;;;;;;30.13;20.38;;;;;;;;;;4933920;29;20481;-82
2021/11/25 11:10:00;;;;;;;25.45;18.40;;;;;;;;;;4935960;29;20233;-77
2021/11/25 11:12:32;;;;;;;25.58;18.38;;;;;;;;;;4938415;29;20289;-84
2021/11/25 11:15:12;;;;;;;23.10;17.20;;;;;;;;;;4941681;28;20190;-80
2021/11/25 11:17:59;;;;;;;27.13;17.40;;;;;;;;;;4952082;28;20560;-78
2021/11/25 11:20:26;;;;;;;23.20;16.70;;;;;;;;;;4953137;28;20476;-79
2021/11/25 11:22:54;;;;;;;25.05;16.85;;;;;;;;;;4952581;28;20229;-78
2021/11/25 11:25:23;;;;;;;29.05;19.60;;;;;;;;;;4958317;28;20199;-79
2021/11/25 11:27:52;;;;;;;24.15;17.90;;;;;;;;;;4933902;29;20230;-79
2021/11/25 11:30:19;;;;;;;21.65;16.50;;;;;;;;;;4936115;28;20218;-81
2021/11/25 11:32:47;;;;;;;23.58;16.23;;;;;;;;;;4938589;28;20637;-79
2021/11/25 11:35:15;;;;;;;21.73;16.70;;;;;;;;;;4944469;28;20211;-80
2021/11/25 11:37:43;;;;;;;21.03;16.60;;;;;;;;;;4931743;29;20493;-78
2021/11/25 11:40:12;;;;;;;23.15;15.90;;;;;;;;;;4937233;29;20442;-75
2021/11/25 11:42:40;;;;;;;22.77;16.80;;;;;;;;;;4937778;29;20202;-79
2021/11/25 11:45:09;;;;;;;24.40;16.13;;;;;;;;;;4945001;29;20294;-78
2021/11/25 11:47:37;;;;;;;25.33;17.93;;;;;;;;;;4946220;28;20467;-76
2021/11/25 11:50:06;;;;;;;30.57;18.70;;;;;;;;;;4957309;29;20481;-75
2021/11/25 11:52:33;;;;;;;28.17;17.13;;;;;;;;;;4957560;29;20449;-76
2021/11/25 11:55:02;;;;;;;27.10;17.37;;;;;;;;;;4958274;28;20532;-77
2021/11/25 11:57:32;;;;;;;25.13;18.67;;;;;;;;;;4958684;28;20481;-78
2021/11/25 12:00:01;;;;;;;26.88;19.90;;;;;;;;;;4938709;29;20992;-75
2021/11/25 12:02:43;;;;;;;27.00;19.30;;;;;;;;;;4960068;28;20214;-78
2021/11/25 12:05:12;;;;;;;24.13;18.03;;;;;;;;;;4953685;28;20565;-76
2021/11/25 12:07:39;;;;;;;24.27;18.23;;;;;;;;;;4938952;29;20458;-76
2021/11/25 12:10:06;;;;;;;23.23;17.17;;;;;;;;;;4956306;28;20485;-76
2021/11/25 12:12:34;;;;;;;25.20;18.30;;;;;;;;;;4941864;29;20218;-78
2021/11/25 12:15:03;;;;;;;28.10;20.07;;;;;;;;;;4936395;29;20488;-76
2021/11/25 12:17:32;;;;;;;21.30;17.73;;;;;;;;;;4948523;28;20461;-77
2021/11/25 12:20:14;;;;;;;23.87;17.30;;;;;;;;;;4971012;28;20455;-79
2021/11/25 12:22:48;;;;;;;20.27;15.87;;;;;;;;;;4974232;28;20437;-80
2021/11/25 12:25:29;;;;;;;25.98;17.67;;;;;;;;;;4961962;28;20437;-78
2021/11/25 12:28:10;;;;;;;22.38;16.48;;;;;;;;;;4945731;29;20313;-75
2021/11/25 12:30:41;;;;;;;23.20;16.98;;;;;;;;;;4939824;29;20680;-75
2021/11/25 12:33:08;;;;;;;22.57;17.10;;;;;;;;;;4947523;29;20206;-76
2021/11/25 12:35:37;;;;;;;25.43;18.63;;;;;;;;;;4948014;29;20462;-76
2021/11/25 12:38:08;;;;;;;24.87;18.03;;;;;;;;;;4941615;29;20490;-80
2021/11/25 12:40:40;;;;;;;21.60;16.70;;;;;;;;;;4940767;29;20481;-76
2021/11/25 12:43:08;;;;;;;20.60;14.80;;;;;;;;;;4942238;29;20465;-77
2021/11/25 12:45:37;;;;;;;26.20;18.05;;;;;;;;;;4940069;29;20221;-75
2021/11/25 12:48:19;;;;;;;25.15;17.35;;;;;;;;;;4941486;29;20309;-80
2021/11/25 12:50:51;;;;;;;21.75;15.90;;;;;;;;;;4941930;29;20223;-78
2021/11/25 12:53:22;;;;;;;22.10;17.10;;;;;;;;;;4945143;29;20211;-77
2021/11/25 12:55:54;;;;;;;22.50;16.80;;;;;;;;;;4962227;28;20462;-77
2021/11/25 12:58:21;;;;;;;21.75;15.07;;;;;;;;;;4941093;29;20482;-78
2021/11/25 13:00:49;;;;;;;21.85;15.20;;;;;;;;;;4942841;29;20203;-75
2021/11/25 13:03:17;;;;;;;23.13;15.90;;;;;;;;;;4940658;29;20583;-75
2021/11/25 13:05:45;;;;;;;24.65;15.45;;;;;;;;;;4942582;29;20202;-76
2021/11/25 13:08:14;;;;;;;22.10;16.30;;;;;;;;;;4942899;29;20299;-76
2021/11/25 13:10:43;;;;;;;19.97;15.50;;;;;;;;;;4940099;29;20843;-78
2021/11/25 13:13:12;;;;;;;22.60;14.07;;;;;;;;;;4944651;29;20454;-78
2021/11/25 13:15:40;;;;;;;18.20;14.10;;;;;;;;;;4945230;29;20464;-77
2021/11/25 13:18:08;;;;;;;19.30;14.67;;;;;;;;;;4963722;28;20815;-75
2021/11/25 13:20:43;;;;;;;18.13;14.10;;;;;;;;;;4974619;28;20448;-76
2021/11/25 13:23:10;;;;;;;18.77;14.33;;;;;;;;;;4976129;28;20449;-76
2021/11/25 13:25:48;;;;;;;17.50;14.00;;;;;;;;;;4974913;28;20973;-76
2021/11/25 13:28:27;;;;;;;18.77;14.60;;;;;;;;;;4950953;28;20486;-77
2021/11/25 13:31:10;;;;;;;21.63;14.83;;;;;;;;;;4944734;29;20920;-76
2021/11/25 13:33:52;;;;;;;19.27;14.97;;;;;;;;;;4950283;28;20449;-76
2021/11/25 13:36:19;;;;;;;21.50;14.60;;;;;;;;;;4968984;28;20468;-76
2021/11/25 13:38:49;;;;;;;21.57;14.83;;;;;;;;;;4938351;29;20870;-77
2021/11/25 13:41:19;;;;;;;17.50;14.80;;;;;;;;;;4941754;29;20466;-74
2021/11/25 13:43:48;;;;;;;17.27;14.13;;;;;;;;;;4939912;29;20905;-77
2021/11/25 13:46:15;;;;;;;28.10;14.57;;;;;;;;;;4944938;28;20443;-76
2021/11/25 13:48:43;;;;;;;23.40;16.13;;;;;;;;;;4947331;28;20472;-75
2021/11/25 13:51:20;;;;;;;29.67;16.00;;;;;;;;;;4941473;29;20842;-81
2021/11/25 13:53:47;;;;;;;26.20;15.77;;;;;;;;;;4940323;29;20486;-79
2021/11/25 13:56:14;;;;;;;25.03;15.50;;;;;;;;;;4939297;29;20461;-76
2021/11/25 13:58:44;;;;;;;21.63;15.07;;;;;;;;;;4941295;29;20482;-76
2021/11/25 14:01:12;;;;;;;25.17;15.40;;;;;;;;;;4941665;29;20470;-77
2021/11/25 14:03:44;;;;;;;32.47;15.27;;;;;;;;;;4947060;29;20805;-75
2021/11/25 14:06:21;;;;;;;19.23;14.20;;;;;;;;;;4949206;28;20453;-77
2021/11/25 14:08:48;;;;;;;32.37;16.70;;;;;;;;;;4960030;28;20533;-76
2021/11/25 14:11:17;;;;;;;28.77;15.68;;;;;;;;;;4952269;28;20494;-76
2021/11/25 14:13:45;;;;;;;25.20;14.77;;;;;;;;;;4940982;29;20202;-74
2021/11/25 14:16:14;;;;;;;26.98;16.83;;;;;;;;;;4939226;29;20553;-77
2021/11/25 14:18:42;;;;;;;26.95;16.63;;;;;;;;;;4944689;28;20209;-77
2021/11/25 14:21:09;;;;;;;26.00;15.90;;;;;;;;;;4947763;28;20948;-75
2021/11/25 14:23:36;;;;;;;21.02;16.25;;;;;;;;;;4957355;28;20453;-76
2021/11/25 14:26:21;;;;;;;23.23;17.17;;;;;;;;;;4959094;28;20811;-78
2021/11/25 14:31:31;;;;;;;22.30;16.30;;;;;;;;;;4944630;28;20230;-75
2021/11/25 14:34:00;;;;;;;21.40;16.10;;;;;;;;;;4942250;29;20494;-76
2021/11/25 14:36:28;;;;;;;24.35;16.10;;;;;;;;;;4946854;29;20208;-76
2021/11/25 14:38:57;;;;;;;27.73;17.07;;;;;;;;;;4944624;29;20207;-78
2021/11/25 14:41:26;;;;;;;26.98;17.40;;;;;;;;;;4937681;29;20482;-77